Time,TemperatureF,DewpointF,PressureIn,WindDirection,WindDirectionDegrees,WindSpeedMPH,WindSpeedGustMPH,Humidity,HourlyPrecipIn,Conditions,Clouds,dailyrainin,SolarRadiationWatts/m^2,SoftwareType,DateUTC
2013-06-16 00:01:00,54.0,41.0,-100.00,ESE,103,0.0,3.0,60,-99.99,,,0.00,0.000000,,2013-06-16 06:01:00,
2013-06-16 00:11:00,54.0,41.0,-100.00,ESE,103,0.0,3.0,60,-99.99,,,0.00,0.000000,,2013-06-16 06:11:00,
2013-06-16 00:43:00,51.0,39.0,-100.00,ESE,116,3.0,4.0,62,-99.99,,,0.00,0.000000,,2013-06-16 06:43:00,
2013-06-16 00:52:00,51.0,39.0,-100.00,ESE,116,3.0,4.0,62,-99.99,,,0.00,0.000000,,2013-06-16 06:52:00,
2013-06-16 01:01:00,51.0,39.0,-100.00,ESE,116,3.0,4.0,62,-99.99,,,0.00,0.000000,,2013-06-16 07:01:00,
2013-06-16 01:11:00,51.0,39.0,-100.00,ESE,116,3.0,4.0,62,-99.99,,,0.00,0.000000,,2013-06-16 07:11:00,
2013-06-16 01:43:00,48.0,39.0,-100.00,SSE,156,2.0,4.0,69,-99.99,,,0.00,0.000000,,2013-06-16 07:43:00,
2013-06-16 01:53:00,48.0,39.0,-100.00,SSE,156,2.0,4.0,69,-99.99,,,0.00,0.000000,,2013-06-16 07:53:00,
2013-06-16 02:02:00,48.0,39.0,-100.00,SSE,156,2.0,4.0,69,-99.99,,,0.00,0.000000,,2013-06-16 08:02:00,
2013-06-16 02:11:00,48.0,39.0,-100.00,SSE,156,2.0,4.0,69,-99.99,,,0.00,0.000000,,2013-06-16 08:11:00,
2013-06-16 02:43:00,46.0,39.0,-100.00,SSE,149,2.0,4.0,75,-99.99,,,0.00,0.000000,,2013-06-16 08:43:00,
2013-06-16 02:54:00,46.0,39.0,-100.00,SSE,149,2.0,4.0,75,-99.99,,,0.00,0.000000,,2013-06-16 08:54:00,
2013-06-16 03:01:00,46.0,39.0,-100.00,SSE,149,2.0,4.0,75,-99.99,,,0.00,0.000000,,2013-06-16 09:01:00,
2013-06-16 03:11:00,46.0,39.0,-100.00,SSE,149,2.0,4.0,75,-99.99,,,0.00,0.000000,,2013-06-16 09:11:00,
2013-06-16 03:42:00,47.0,38.0,-100.00,SE,135,1.0,2.0,69,-99.99,,,0.00,0.000000,,2013-06-16 09:42:00,
2013-06-16 03:52:00,47.0,38.0,-100.00,SE,135,1.0,2.0,69,-99.99,,,0.00,0.000000,,2013-06-16 09:52:00,
2013-06-16 04:01:00,47.0,38.0,-100.00,SE,135,1.0,2.0,69,-99.99,,,0.00,0.000000,,2013-06-16 10:01:00,
2013-06-16 04:12:00,47.0,38.0,-100.00,SE,135,1.0,2.0,69,-99.99,,,0.00,0.000000,,2013-06-16 10:12:00,
2013-06-16 04:42:00,46.0,37.0,-100.00,North,2,0.0,2.0,70,-99.99,,,-99.99,0.000000,,2013-06-16 10:42:00,
2013-06-16 04:53:00,46.0,37.0,-100.00,North,2,0.0,2.0,70,-99.99,,,-99.99,0.000000,,2013-06-16 10:53:00,
2013-06-16 05:02:00,46.0,37.0,-100.00,North,2,0.0,2.0,70,-99.99,,,-99.99,0.000000,,2013-06-16 11:02:00,
2013-06-16 05:11:00,46.0,37.0,-100.00,North,2,0.0,2.0,70,-99.99,,,-99.99,0.000000,,2013-06-16 11:11:00,
2013-06-16 05:43:00,44.0,37.0,-100.00,North,0,0.0,0.0,75,-99.99,,,0.00,0.000000,,2013-06-16 11:43:00,
2013-06-16 05:53:00,44.0,37.0,-100.00,North,0,0.0,0.0,75,-99.99,,,0.00,0.000000,,2013-06-16 11:53:00,
2013-06-16 06:01:00,44.0,37.0,-100.00,North,0,0.0,0.0,75,-99.99,,,0.00,0.000000,,2013-06-16 12:01:00,
2013-06-16 06:11:00,44.0,37.0,-100.00,North,0,0.0,0.0,75,-99.99,,,0.00,0.000000,,2013-06-16 12:11:00,
2013-06-16 06:42:00,40.0,37.0,-100.00,ESE,111,2.0,3.0,88,-99.99,,,0.00,13.950000,,2013-06-16 12:42:00,
2013-06-16 06:53:00,40.0,37.0,-100.00,ESE,111,2.0,3.0,88,-99.99,,,0.00,13.950000,,2013-06-16 12:53:00,
2013-06-16 07:01:00,40.0,37.0,-100.00,ESE,111,2.0,3.0,88,-99.99,,,0.00,13.950000,,2013-06-16 13:01:00,
2013-06-16 07:11:00,40.0,37.0,-100.00,ESE,111,2.0,3.0,88,-99.99,,,0.00,13.950000,,2013-06-16 13:11:00,
2013-06-16 07:42:00,47.0,41.0,-100.00,WNW,286,1.0,3.0,78,-99.99,,,0.00,163.869995,,2013-06-16 13:42:00,
2013-06-16 07:53:00,47.0,41.0,-100.00,WNW,286,1.0,3.0,78,-99.99,,,0.00,163.869995,,2013-06-16 13:53:00,
2013-06-16 08:01:00,47.0,41.0,-100.00,WNW,286,1.0,3.0,78,-99.99,,,0.00,163.869995,,2013-06-16 14:01:00,
2013-06-16 08:12:00,47.0,41.0,-100.00,WNW,286,1.0,3.0,78,-99.99,,,0.00,163.869995,,2013-06-16 14:12:00,
2013-06-16 08:43:00,52.0,41.0,-100.00,NNW,329,1.0,4.0,65,-99.99,,,0.00,318.910004,,2013-06-16 14:43:00,
2013-06-16 08:52:00,52.0,41.0,-100.00,NNW,329,1.0,4.0,65,-99.99,,,0.00,318.910004,,2013-06-16 14:52:00,
2013-06-16 09:02:00,52.0,41.0,-100.00,NNW,329,1.0,4.0,65,-99.99,,,0.00,318.910004,,2013-06-16 15:02:00,
2013-06-16 09:12:00,52.0,41.0,-100.00,NNW,329,1.0,4.0,65,-99.99,,,0.00,318.910004,,2013-06-16 15:12:00,
2013-06-16 09:43:00,57.0,40.0,-100.00,WNW,290,1.0,4.0,53,-99.99,,,0.00,449.309998,,2013-06-16 15:43:00,
2013-06-16 09:52:00,57.0,40.0,-100.00,WNW,290,1.0,4.0,53,-99.99,,,0.00,449.309998,,2013-06-16 15:52:00,
2013-06-16 10:01:00,57.0,40.0,-100.00,WNW,290,1.0,4.0,53,-99.99,,,0.00,449.309998,,2013-06-16 16:01:00,
2013-06-16 10:11:00,57.0,40.0,-100.00,WNW,290,1.0,4.0,53,-99.99,,,0.00,449.309998,,2013-06-16 16:11:00,
2013-06-16 10:43:00,59.0,43.0,-100.00,NW,322,2.0,4.0,57,-99.99,,,0.00,635.840027,,2013-06-16 16:43:00,
2013-06-16 10:53:00,59.0,43.0,-100.00,NW,322,2.0,4.0,57,-99.99,,,0.00,635.840027,,2013-06-16 16:53:00,
2013-06-16 11:43:00,63.0,42.0,-100.00,NW,306,2.0,5.0,45,-99.99,,,0.00,829.809998,,2013-06-16 17:43:00,
2013-06-16 11:53:00,63.0,42.0,-100.00,NW,306,2.0,5.0,45,-99.99,,,0.00,829.809998,,2013-06-16 17:53:00,
2013-06-16 12:43:00,69.0,42.0,-100.00,NW,325,2.0,7.0,37,-99.99,,,0.00,911.159973,,2013-06-16 18:43:00,
2013-06-16 12:52:00,69.0,42.0,-100.00,NW,325,2.0,7.0,37,-99.99,,,0.00,911.159973,,2013-06-16 18:52:00,
2013-06-16 13:01:00,69.0,42.0,-100.00,NW,325,2.0,7.0,37,-99.99,,,0.00,911.159973,,2013-06-16 19:01:00,
2013-06-16 13:11:00,69.0,42.0,-100.00,NW,325,2.0,7.0,37,-99.99,,,0.00,911.159973,,2013-06-16 19:11:00,
2013-06-16 13:43:00,72.0,44.0,-100.00,North,353,2.0,7.0,36,-99.99,,,0.00,971.599976,,2013-06-16 19:43:00,
2013-06-16 13:53:00,72.0,44.0,-100.00,North,353,2.0,7.0,36,-99.99,,,0.00,971.599976,,2013-06-16 19:53:00,
2013-06-16 14:02:00,72.0,44.0,-100.00,North,353,2.0,7.0,36,-99.99,,,0.00,971.599976,,2013-06-16 20:02:00,
2013-06-16 14:11:00,72.0,44.0,-100.00,North,353,2.0,7.0,36,-99.99,,,0.00,971.599976,,2013-06-16 20:11:00,
2013-06-16 14:53:00,75.0,44.0,-100.00,NW,308,2.0,8.0,33,-99.99,,,-99.99,969.270020,,2013-06-16 20:53:00,
2013-06-16 15:01:00,75.0,44.0,-100.00,NW,308,2.0,8.0,33,-99.99,,,-99.99,969.270020,,2013-06-16 21:01:00,
2013-06-16 15:11:00,75.0,44.0,-100.00,NW,308,2.0,8.0,33,-99.99,,,-99.99,969.270020,,2013-06-16 21:11:00,
2013-06-16 15:42:00,79.0,45.0,-100.00,NW,312,2.0,9.0,30,-99.99,,,0.00,920.460022,,2013-06-16 21:42:00,
2013-06-16 15:53:00,79.0,45.0,-100.00,NW,312,2.0,9.0,30,-99.99,,,0.00,920.460022,,2013-06-16 21:53:00,
2013-06-16 16:01:00,79.0,45.0,-100.00,NW,312,2.0,9.0,30,-99.99,,,0.00,920.460022,,2013-06-16 22:01:00,
2013-06-16 16:12:00,79.0,45.0,-100.00,NW,312,2.0,9.0,30,-99.99,,,0.00,920.460022,,2013-06-16 22:12:00,
2013-06-16 16:42:00,81.0,43.0,-100.00,NNW,342,2.0,8.0,26,-99.99,,,0.00,821.679993,,2013-06-16 22:42:00,
2013-06-16 16:52:00,81.0,43.0,-100.00,NNW,342,2.0,8.0,26,-99.99,,,0.00,821.679993,,2013-06-16 22:52:00,
2013-06-16 17:01:00,81.0,43.0,-100.00,NNW,342,2.0,8.0,26,-99.99,,,0.00,821.679993,,2013-06-16 23:01:00,
2013-06-16 17:11:00,81.0,43.0,-100.00,NNW,342,2.0,8.0,26,-99.99,,,0.00,821.679993,,2013-06-16 23:11:00,
2013-06-16 17:42:00,81.0,46.0,-100.00,NNW,344,3.0,9.0,29,-99.99,,,0.00,687.330017,,2013-06-16 23:42:00,
2013-06-16 17:52:00,81.0,46.0,-100.00,NNW,344,3.0,9.0,29,-99.99,,,0.00,687.330017,,2013-06-16 23:52:00,
2013-06-16 18:01:00,81.0,46.0,-100.00,NNW,344,3.0,9.0,29,-99.99,,,0.00,687.330017,,2013-06-17 00:01:00,
2013-06-16 18:11:00,81.0,46.0,-100.00,NNW,344,3.0,9.0,29,-99.99,,,0.00,687.330017,,2013-06-17 00:11:00,
2013-06-16 19:43:00,77.0,47.0,-100.00,NNW,344,2.0,7.0,34,-99.99,,,0.00,273.929993,,2013-06-17 01:43:00,
2013-06-16 19:53:00,77.0,47.0,-100.00,NNW,344,2.0,7.0,34,-99.99,,,0.00,273.929993,,2013-06-17 01:53:00,
2013-06-16 20:02:00,77.0,47.0,-100.00,NNW,344,2.0,7.0,34,-99.99,,,0.00,273.929993,,2013-06-17 02:02:00,
2013-06-16 20:11:00,77.0,47.0,-100.00,NNW,344,2.0,7.0,34,-99.99,,,0.00,273.929993,,2013-06-17 02:11:00,
2013-06-16 21:44:00,69.0,45.0,-100.00,NW,316,0.0,3.0,43,-99.99,,,0.00,25.570000,,2013-06-17 03:44:00,
2013-06-16 21:54:00,69.0,45.0,-100.00,NW,316,0.0,3.0,43,-99.99,,,0.00,25.570000,,2013-06-17 03:54:00,
2013-06-16 22:02:00,69.0,45.0,-100.00,NW,316,0.0,3.0,43,-99.99,,,0.00,25.570000,,2013-06-17 04:02:00,
2013-06-16 22:12:00,69.0,45.0,-100.00,NW,316,0.0,3.0,43,-99.99,,,0.00,25.570000,,2013-06-17 04:12:00,
2013-06-16 22:42:00,67.0,44.0,-100.00,WNW,300,1.0,3.0,43,-99.99,,,-99.99,0.000000,,2013-06-17 04:42:00,
2013-06-16 22:53:00,67.0,44.0,-100.00,WNW,300,1.0,3.0,43,-99.99,,,-99.99,0.000000,,2013-06-17 04:53:00,
2013-06-16 23:02:00,67.0,44.0,-100.00,WNW,300,1.0,3.0,43,-99.99,,,-99.99,0.000000,,2013-06-17 05:02:00,
2013-06-16 23:11:00,67.0,44.0,-100.00,WNW,300,1.0,3.0,43,-99.99,,,-99.99,0.000000,,2013-06-17 05:11:00,
2013-06-16 23:44:00,61.0,45.0,-100.00,NNE,23,1.0,3.0,56,-99.99,,,0.00,0.000000,,2013-06-17 05:44:00,
2013-06-16 23:53:00,61.0,45.0,-100.00,NNE,23,1.0,3.0,56,-99.99,,,0.00,0.000000,,2013-06-17 05:53:00,